Time;durP1;ratioP1;P1;durP2;ratioP2;P2;SDS_P1;SDS_P2;PMS_P1;PMS_P2;Temp;Humidity;BMP_temperature;BMP_pressure;BME280_temperature;BME280_humidity;BME280_pressure;Samples;Min_cycle;Max_cycle;Signal;HPM_P1;HPM_P2
2022/01/23 00:02:16;;;;;;;41.45;26.00;;;-1.10;99.90;;;;;;5103244;28;20315;-79
2022/01/23 00:04:44;;;;;;;37.38;23.63;;;-0.80;99.90;;;;;;5103117;28;20365;-79
2022/01/23 00:07:14;;;;;;;42.30;25.80;;;-0.80;99.90;;;;;;5085266;28;20198;-80
2022/01/23 00:09:42;;;;;;;45.33;24.95;;;-0.60;99.90;;;;;;5085574;28;20198;-80
2022/01/23 00:12:20;;;;;;;51.13;26.45;;;-0.70;99.90;;;;;;5085529;28;20205;-80
2022/01/23 00:17:34;;;;;;;40.65;25.38;;;-0.90;99.90;;;;;;5103699;28;20200;-79
2022/01/23 00:20:07;;;;;;;42.50;25.55;;;-0.90;99.90;;;;;;5104410;28;20198;-80
2022/01/23 00:22:55;;;;;;;48.13;25.05;;;-0.70;99.90;;;;;;5104168;28;20226;-80
2022/01/23 00:30:59;;;;;;;35.28;23.98;;;-1.00;99.90;;;;;;5104109;28;20193;-79
2022/01/23 00:33:27;;;;;;;40.03;24.02;;;-0.70;99.90;;;;;;5085443;28;20189;-79
2022/01/23 00:35:54;;;;;;;39.58;24.45;;;-0.50;99.90;;;;;;5102769;28;20206;-79
2022/01/23 00:38:22;;;;;;;39.70;24.10;;;-0.40;99.90;;;;;;5103485;28;20194;-79
2022/01/23 00:40:50;;;;;;;38.97;25.55;;;-0.30;99.90;;;;;;5103333;28;20257;-79
2022/01/23 00:43:26;;;;;;;33.70;22.40;;;-0.20;99.90;;;;;;5103339;28;20257;-80
2022/01/23 00:46:10;;;;;;;42.65;24.02;;;-0.20;99.90;;;;;;5085432;28;20182;-79
2022/01/23 00:48:42;;;;;;;43.25;25.00;;;-0.30;99.90;;;;;;5085411;28;20222;-80
2022/01/23 00:51:10;;;;;;;42.95;24.75;;;-0.40;99.90;;;;;;5103114;28;20205;-80
2022/01/23 00:53:37;;;;;;;45.92;25.40;;;-0.40;99.90;;;;;;5103067;28;20261;-79
2022/01/23 00:56:05;;;;;;;37.70;22.67;;;-0.50;99.90;;;;;;5103037;28;20514;-85
2022/01/23 00:58:32;;;;;;;39.22;23.48;;;-0.80;99.90;;;;;;5101772;28;20375;-85
2022/01/23 01:00:59;;;;;;;47.60;24.50;;;-0.60;99.90;;;;;;5101646;28;20438;-85
2022/01/23 01:03:28;;;;;;;46.35;26.13;;;-0.70;99.90;;;;;;5083122;28;20194;-85
2022/01/23 01:05:56;;;;;;;36.50;23.52;;;-0.50;99.90;;;;;;5084193;28;20268;-85
2022/01/23 01:08:24;;;;;;;36.15;24.48;;;-0.60;99.90;;;;;;5084110;28;20194;-85
2022/01/23 01:11:17;;;;;;;35.30;20.85;;;-0.60;99.90;;;;;;5083745;28;20183;-84
2022/01/23 01:30:25;;;;;;;32.85;21.63;;;-0.50;99.90;;;;;;5105739;28;20253;-84
2022/01/23 01:35:35;;;;;;;30.27;20.83;;;-0.40;99.90;;;;;;5105318;28;20499;-83
2022/01/23 01:38:03;;;;;;;33.70;20.20;;;-0.40;99.90;;;;;;5105095;28;20198;-83
2022/01/23 01:40:31;;;;;;;35.95;21.83;;;-0.30;99.90;;;;;;5103814;28;20268;-83
2022/01/23 01:43:00;;;;;;;29.40;19.48;;;-0.10;99.90;;;;;;5104213;28;20221;-82
2022/01/23 01:45:30;;;;;;;29.80;18.95;;;-0.10;99.90;;;;;;5086916;28;20253;-84
2022/01/23 01:48:01;;;;;;;37.28;22.08;;;-0.20;99.90;;;;;;5104127;28;20220;-83
2022/01/23 01:50:31;;;;;;;36.08;20.17;;;-0.30;99.90;;;;;;5086689;28;20187;-82
2022/01/23 01:52:59;;;;;;;29.88;20.00;;;-0.30;99.90;;;;;;5104887;28;20518;-83
2022/01/23 01:55:35;;;;;;;30.40;19.85;;;-0.40;99.90;;;;;;5087139;28;20304;-83
2022/01/23 01:58:04;;;;;;;33.10;20.00;;;-0.20;99.90;;;;;;5104340;28;20198;-83
2022/01/23 02:00:55;;;;;;;26.25;16.88;;;-0.20;99.90;;;;;;5104276;28;20204;-83
2022/01/23 02:08:39;;;;;;;27.58;17.88;;;-0.30;99.90;;;;;;5103658;28;20179;-83
2022/01/23 02:11:15;;;;;;;29.30;17.98;;;-0.20;99.90;;;;;;5103987;28;20198;-84
2022/01/23 02:14:09;;;;;;;29.80;20.05;;;-0.20;99.90;;;;;;5103739;28;20391;-83
2022/01/23 02:17:11;;;;;;;37.88;18.30;;;-0.30;99.90;;;;;;5104053;28;20194;-84
2022/01/23 02:53:35;;;;;;;30.50;15.70;;;-0.20;99.90;;;;;;5103408;28;20253;-82
2022/01/23 02:55:41;;;;;;;24.50;17.45;;;-0.30;99.90;;;;;;5092573;28;20202;-84
2022/01/23 02:58:11;;;;;;;21.50;14.80;;;-0.30;99.90;;;;;;5102807;28;20221;-83
2022/01/23 03:03:26;;;;;;;24.20;15.23;;;-0.20;99.90;;;;;;5102667;28;20218;-83
2022/01/23 03:11:35;;;;;;;23.88;15.32;;;0.00;99.90;;;;;;5102382;28;20231;-82
2022/01/23 03:14:14;;;;;;;28.25;16.17;;;0.00;99.90;;;;;;5104590;28;20535;-82
2022/01/23 03:29:57;;;;;;;29.60;15.93;;;0.10;99.90;;;;;;5110988;28;20194;-83
2022/01/23 03:32:35;;;;;;;29.55;15.90;;;0.00;99.90;;;;;;5091871;28;20352;-83
2022/01/23 03:35:04;;;;;;;25.13;15.77;;;0.20;99.90;;;;;;5107878;28;20315;-84
2022/01/23 03:37:32;;;;;;;19.20;13.02;;;0.30;99.90;;;;;;5108095;28;20194;-84
2022/01/23 03:39:59;;;;;;;19.30;13.80;;;0.30;99.90;;;;;;5107602;28;20377;-82
2022/01/23 03:42:28;;;;;;;22.20;13.50;;;0.50;99.90;;;;;;5104589;28;20249;-84
2022/01/23 03:47:39;;;;;;;16.25;12.20;;;0.50;99.90;;;;;;5109349;28;20192;-82
2022/01/23 03:50:11;;;;;;;25.40;14.30;;;0.40;99.90;;;;;;5109276;28;20495;-83
2022/01/23 03:52:39;;;;;;;22.27;13.35;;;0.40;99.90;;;;;;5109886;28;20198;-82
2022/01/23 03:55:07;;;;;;;19.17;13.18;;;0.30;99.90;;;;;;5092232;28;20198;-82
2022/01/23 03:57:35;;;;;;;19.52;13.80;;;0.20;99.90;;;;;;5110820;28;20413;-83
2022/01/23 04:00:04;;;;;;;19.92;14.95;;;0.30;99.90;;;;;;5111056;28;20245;-84
2022/01/23 04:02:32;;;;;;;23.95;12.73;;;0.40;99.90;;;;;;5111756;28;20306;-82
2022/01/23 04:05:00;;;;;;;27.77;13.10;;;0.40;99.90;;;;;;5126280;28;20475;-82
2022/01/23 04:07:28;;;;;;;19.27;12.90;;;0.50;99.90;;;;;;5125694;28;20349;-83
2022/01/23 04:09:56;;;;;;;20.02;14.65;;;0.40;99.90;;;;;;5127155;28;20373;-82
2022/01/23 04:15:08;;;;;;;26.48;14.38;;;0.60;99.90;;;;;;5125284;28;20291;-83
2022/01/23 05:00:47;;;;;;;18.52;11.82;;;2.40;99.90;;;;;;5125326;28;20197;-83
2022/01/23 05:05:48;;;;;;;17.52;12.20;;;1.60;99.90;;;;;;5124487;28;20267;-83
2022/01/23 05:08:18;;;;;;;21.13;13.18;;;1.50;99.90;;;;;;5125339;28;20563;-82
2022/01/23 05:10:46;;;;;;;17.48;13.07;;;1.70;99.90;;;;;;5106394;28;20182;-82
2022/01/23 05:13:14;;;;;;;15.48;12.70;;;1.70;99.90;;;;;;5125170;28;20502;-83
2022/01/23 05:15:41;;;;;;;13.73;10.82;;;1.60;99.90;;;;;;5124865;28;20197;-84
2022/01/23 05:18:09;;;;;;;15.88;11.75;;;1.80;99.90;;;;;;5125358;28;20213;-83
2022/01/23 05:20:38;;;;;;;25.10;13.07;;;1.90;99.90;;;;;;5125506;28;20215;-83
2022/01/23 05:23:07;;;;;;;20.60;12.70;;;2.10;99.90;;;;;;5126567;28;20426;-81
2022/01/23 05:25:36;;;;;;;24.13;13.50;;;2.20;99.90;;;;;;5126623;28;20198;-82
2022/01/23 05:28:03;;;;;;;16.27;11.77;;;2.30;99.90;;;;;;5108337;28;20353;-82
2022/01/23 05:30:31;;;;;;;20.30;12.45;;;2.20;99.90;;;;;;5108135;28;20194;-81
2022/01/23 05:33:00;;;;;;;18.55;12.38;;;2.30;99.90;;;;;;5108828;28;20197;-82
2022/01/23 05:35:29;;;;;;;17.30;11.13;;;2.20;99.90;;;;;;5127387;28;20477;-82
2022/01/23 05:37:56;;;;;;;15.25;11.68;;;2.00;99.90;;;;;;5127061;28;20220;-83
2022/01/23 05:40:27;;;;;;;20.02;12.88;;;2.00;99.90;;;;;;5124703;28;20210;-83
2022/01/23 05:42:54;;;;;;;21.13;12.80;;;2.10;99.90;;;;;;5124599;28;20465;-83
2022/01/23 05:45:21;;;;;;;18.85;12.80;;;2.30;99.90;;;;;;5125111;28;20200;-83
2022/01/23 05:47:49;;;;;;;14.38;11.50;;;2.30;99.90;;;;;;5124456;28;20212;-83
2022/01/23 05:50:17;;;;;;;22.35;13.25;;;2.30;99.90;;;;;;5106709;28;20198;-83
2022/01/23 05:52:44;;;;;;;16.75;12.45;;;2.30;99.90;;;;;;5126581;28;20483;-82
2022/01/23 05:55:13;;;;;;;19.25;12.18;;;2.40;99.90;;;;;;5126514;28;20336;-81
2022/01/23 05:57:41;;;;;;;16.17;11.60;;;2.40;99.90;;;;;;5107888;28;20202;-81
2022/01/23 06:00:09;;;;;;;25.17;13.93;;;2.40;99.90;;;;;;5108359;28;20551;-83
2022/01/23 06:02:36;;;;;;;21.20;13.27;;;2.60;99.90;;;;;;5126189;28;20415;-81
2022/01/23 06:05:04;;;;;;;18.58;11.95;;;2.60;99.90;;;;;;5125049;28;20438;-83
2022/01/23 06:07:31;;;;;;;18.13;11.43;;;2.50;99.90;;;;;;5124786;28;20387;-83
2022/01/23 06:09:59;;;;;;;18.85;11.40;;;2.40;99.90;;;;;;5124684;28;20225;-82
2022/01/23 06:12:27;;;;;;;16.77;11.10;;;2.20;99.90;;;;;;5124805;28;20208;-82
2022/01/23 06:14:54;;;;;;;18.50;12.23;;;2.40;99.90;;;;;;5124354;28;20201;-80
2022/01/23 06:17:21;;;;;;;13.65;11.70;;;2.40;99.90;;;;;;5124292;28;20409;-82
2022/01/23 06:19:49;;;;;;;18.15;11.73;;;2.40;99.90;;;;;;5123671;28;20197;-82
2022/01/23 06:22:21;;;;;;;20.25;10.45;;;2.20;99.90;;;;;;5123993;28;20219;-82
2022/01/23 06:24:50;;;;;;;22.35;12.38;;;2.20;99.90;;;;;;5123803;28;20197;-81
2022/01/23 06:27:17;;;;;;;20.27;13.43;;;2.10;99.90;;;;;;5105931;28;20223;-82
2022/01/23 06:29:45;;;;;;;19.95;12.75;;;2.10;99.90;;;;;;5124400;28;20269;-83
2022/01/23 06:32:13;;;;;;;16.35;11.93;;;2.00;99.90;;;;;;5106751;28;20491;-83
2022/01/23 06:34:41;;;;;;;20.33;13.02;;;1.90;99.90;;;;;;5125898;28;20201;-83
2022/01/23 06:37:09;;;;;;;18.70;13.20;;;1.60;99.90;;;;;;5125395;28;20197;-83
2022/01/23 06:39:36;;;;;;;19.10;11.98;;;1.70;99.90;;;;;;5125577;28;20284;-84
2022/01/23 06:42:04;;;;;;;21.95;13.95;;;1.70;99.90;;;;;;5124403;28;20200;-83
2022/01/23 06:44:31;;;;;;;20.77;12.82;;;1.80;99.90;;;;;;5124352;28;20395;-82
2022/01/23 06:47:00;;;;;;;19.70;13.27;;;2.10;99.90;;;;;;5124003;28;20193;-83
2022/01/23 06:49:27;;;;;;;18.67;12.15;;;2.20;99.90;;;;;;5124521;28;20200;-83
2022/01/23 06:51:55;;;;;;;18.50;13.25;;;2.20;99.90;;;;;;5105960;28;20208;-83
2022/01/23 06:54:22;;;;;;;19.38;12.43;;;2.10;99.90;;;;;;5123753;28;20212;-83
2022/01/23 06:56:49;;;;;;;20.67;13.57;;;2.20;99.90;;;;;;5123967;28;20197;-83
2022/01/23 06:59:16;;;;;;;20.38;12.07;;;2.10;99.90;;;;;;5123502;28;20495;-83
2022/01/23 07:01:44;;;;;;;19.38;12.30;;;2.00;99.90;;;;;;5123512;28;20272;-82
2022/01/23 07:04:11;;;;;;;27.25;12.38;;;2.00;99.90;;;;;;5125016;28;20229;-85
2022/01/23 07:06:39;;;;;;;23.80;14.68;;;1.90;99.90;;;;;;5127756;28;20186;-84
2022/01/23 07:09:08;;;;;;;19.73;11.18;;;1.90;99.90;;;;;;5126543;28;20283;-85
2022/01/23 07:11:35;;;;;;;16.90;11.10;;;1.80;99.90;;;;;;5125393;28;20192;-84
2022/01/23 07:14:03;;;;;;;19.45;13.15;;;1.80;99.90;;;;;;5106849;28;20202;-85
2022/01/23 07:16:31;;;;;;;20.85;13.18;;;1.80;99.90;;;;;;5107165;28;20205;-86
2022/01/23 07:18:58;;;;;;;23.48;13.45;;;2.00;99.90;;;;;;5125539;28;20181;-84
2022/01/23 07:21:26;;;;;;;18.85;12.63;;;1.90;99.90;;;;;;5125085;28;20264;-85
2022/01/23 07:23:53;;;;;;;22.00;12.50;;;2.00;99.90;;;;;;5124636;28;20229;-83
2022/01/23 07:26:23;;;;;;;17.92;12.82;;;1.90;99.90;;;;;;5106780;28;20200;-85
2022/01/23 07:28:53;;;;;;;28.08;12.00;;;2.10;99.90;;;;;;5124543;28;20182;-84
2022/01/23 07:34:18;;;;;;;22.55;14.13;;;2.00;99.90;;;;;;5101187;28;20201;-85
2022/01/23 07:36:45;;;;;;;19.52;11.68;;;2.00;99.90;;;;;;5125225;28;20220;-86
2022/01/23 07:39:13;;;;;;;17.45;11.45;;;1.90;99.90;;;;;;5107144;28;20221;-85
2022/01/23 07:41:40;;;;;;;19.80;10.43;;;2.00;99.90;;;;;;5124979;28;20201;-84
2022/01/23 07:44:08;;;;;;;16.02;11.60;;;2.00;99.90;;;;;;5125175;28;20225;-85
2022/01/23 07:46:35;;;;;;;18.67;11.60;;;2.00;99.90;;;;;;5109164;28;20209;-84
2022/01/23 07:49:03;;;;;;;16.20;12.57;;;1.90;99.90;;;;;;5110232;28;20232;-84
2022/01/23 07:51:30;;;;;;;17.73;12.63;;;1.90;99.90;;;;;;5127664;28;20271;-85
2022/01/23 07:53:57;;;;;;;19.90;12.30;;;1.80;99.90;;;;;;5105348;28;20190;-86
2022/01/23 07:56:25;;;;;;;22.05;11.25;;;1.90;99.90;;;;;;5125667;28;20254;-86
2022/01/23 07:58:53;;;;;;;13.77;10.43;;;2.00;99.90;;;;;;5124102;28;20190;-87
2022/01/23 08:01:20;;;;;;;17.20;10.93;;;2.20;99.90;;;;;;5123205;28;20197;-85
2022/01/23 08:03:47;;;;;;;19.27;11.02;;;2.30;99.90;;;;;;5123523;28;20209;-84
2022/01/23 08:06:16;;;;;;;15.10;11.40;;;2.40;99.90;;;;;;5105785;28;20212;-87
2022/01/23 08:08:43;;;;;;;17.67;11.27;;;2.50;99.90;;;;;;5123481;28;20208;-86
2022/01/23 08:11:11;;;;;;;21.58;13.60;;;2.50;99.90;;;;;;5106230;28;20197;-85
2022/01/23 08:13:38;;;;;;;15.05;10.55;;;2.60;99.90;;;;;;5123422;28;20586;-85
2022/01/23 08:16:06;;;;;;;23.65;11.88;;;2.40;99.90;;;;;;5123350;28;20231;-87
2022/01/23 08:18:33;;;;;;;15.30;10.82;;;2.60;99.90;;;;;;5097034;28;20199;-88
2022/01/23 08:21:01;;;;;;;16.08;9.90;;;2.80;99.90;;;;;;5094506;28;20223;-87
2022/01/23 08:23:28;;;;;;;18.63;10.85;;;2.90;99.90;;;;;;5103496;28;20621;-88
2022/01/23 08:25:55;;;;;;;19.20;11.88;;;2.90;99.90;;;;;;5103244;28;20193;-87
2022/01/23 08:28:22;;;;;;;21.23;12.45;;;3.10;99.90;;;;;;5103585;28;20194;-89
2022/01/23 08:30:49;;;;;;;17.60;10.68;;;3.00;99.90;;;;;;5103443;28;20217;-89
2022/01/23 08:33:17;;;;;;;15.00;10.95;;;2.80;99.90;;;;;;5077248;28;20221;-88
2022/01/23 08:35:45;;;;;;;26.10;11.90;;;2.80;99.90;;;;;;5100073;28;20437;-88
2022/01/23 08:38:14;;;;;;;13.55;10.30;;;3.00;99.90;;;;;;5102945;28;20300;-87
2022/01/23 08:43:11;;;;;;;20.23;10.65;;;3.20;99.90;;;;;;5102948;28;20225;-89
2022/01/23 08:45:39;;;;;;;28.63;11.93;;;3.30;99.90;;;;;;5102971;28;20364;-88
2022/01/23 08:48:08;;;;;;;16.45;12.52;;;3.40;99.90;;;;;;5086061;28;20354;-87
2022/01/23 08:50:35;;;;;;;12.82;10.57;;;3.40;99.90;;;;;;5103482;28;20338;-89
2022/01/23 08:53:04;;;;;;;20.25;11.98;;;3.50;99.90;;;;;;5088216;28;20290;-88
2022/01/23 08:55:33;;;;;;;13.63;10.27;;;3.40;99.90;;;;;;5085795;28;20270;-89
2022/01/23 08:58:00;;;;;;;16.92;10.70;;;3.50;99.90;;;;;;5103531;28;20270;-88
2022/01/23 09:00:29;;;;;;;20.33;11.63;;;3.60;99.90;;;;;;5085748;28;20207;-87
2022/01/23 09:02:58;;;;;;;18.58;11.13;;;3.60;99.90;;;;;;5102776;28;20187;-90
2022/01/23 09:05:27;;;;;;;15.38;9.05;;;3.70;99.90;;;;;;5084936;28;20263;-89
2022/01/23 09:07:54;;;;;;;18.48;12.85;;;3.60;99.90;;;;;;5102448;28;20200;-87
2022/01/23 09:10:39;;;;;;;18.65;10.88;;;3.50;99.90;;;;;;5087335;28;20195;-88
2022/01/23 09:13:25;;;;;;;14.13;10.68;;;3.70;99.90;;;;;;5094340;28;20199;-89
2022/01/23 09:15:52;;;;;;;15.73;11.32;;;4.00;99.90;;;;;;5079742;28;20198;-89
2022/01/23 09:18:20;;;;;;;20.50;10.73;;;4.30;99.90;;;;;;5091591;28;20198;-90
2022/01/23 09:20:47;;;;;;;17.75;11.68;;;4.60;99.90;;;;;;5077284;28;20206;-89
2022/01/23 09:23:14;;;;;;;18.67;12.18;;;4.40;99.90;;;;;;5095647;28;20351;-89
2022/01/23 09:25:42;;;;;;;22.85;12.50;;;4.10;99.90;;;;;;5075814;28;20209;-90
2022/01/23 09:28:13;;;;;;;24.80;11.10;;;4.00;99.90;;;;;;5101884;28;20510;-87
2022/01/23 09:30:44;;;;;;;12.35;10.15;;;4.10;99.90;;;;;;5105321;28;20192;-89
2022/01/23 09:33:11;;;;;;;17.45;10.93;;;4.00;99.90;;;;;;5086892;28;20264;-87
2022/01/23 09:35:39;;;;;;;26.08;10.95;;;3.90;99.90;;;;;;5096810;28;20224;-88
2022/01/23 09:38:06;;;;;;;17.80;12.40;;;3.90;99.90;;;;;;5096378;28;20260;-89
2022/01/23 09:40:38;;;;;;;19.88;11.80;;;4.10;99.90;;;;;;5088838;28;20206;-88
2022/01/23 09:43:08;;;;;;;17.33;9.35;;;4.10;99.90;;;;;;5103436;28;20875;-90
2022/01/23 09:45:36;;;;;;;16.42;11.20;;;4.10;99.90;;;;;;5095506;28;20386;-84
2022/01/23 09:48:04;;;;;;;17.17;11.70;;;4.00;99.90;;;;;;5094486;28;20425;-88
2022/01/23 09:50:33;;;;;;;14.20;10.63;;;4.20;99.90;;;;;;5080618;28;20491;-90
2022/01/23 09:53:02;;;;;;;16.77;11.75;;;4.30;99.90;;;;;;5098670;28;20224;-89
2022/01/23 09:55:33;;;;;;;21.80;10.32;;;4.40;99.90;;;;;;5079050;28;20205;-88
2022/01/23 09:58:03;;;;;;;19.27;10.43;;;4.60;99.90;;;;;;5085477;28;20190;-89
2022/01/23 10:00:33;;;;;;;23.45;13.07;;;4.70;99.90;;;;;;5076366;28;20194;-87
2022/01/23 10:03:00;;;;;;;16.30;11.30;;;4.60;99.90;;;;;;5100670;28;20200;-89
2022/01/23 10:05:29;;;;;;;17.98;11.93;;;4.60;99.90;;;;;;5092964;28;20240;-88
2022/01/23 10:07:58;;;;;;;19.05;12.27;;;4.50;99.90;;;;;;5096625;28;20197;-89
2022/01/23 10:10:29;;;;;;;19.02;12.00;;;4.40;99.90;;;;;;5099304;28;20477;-90
2022/01/23 10:12:59;;;;;;;21.38;11.48;;;4.30;99.90;;;;;;5098076;28;20198;-89
2022/01/23 10:15:31;;;;;;;18.30;11.48;;;4.60;99.90;;;;;;5120232;28;20201;-90
2022/01/23 10:18:00;;;;;;;15.25;11.82;;;4.70;99.90;;;;;;5080614;28;20219;-91
2022/01/23 10:20:28;;;;;;;14.57;9.85;;;5.00;99.90;;;;;;5121163;28;20270;-89
2022/01/23 10:22:58;;;;;;;19.65;9.77;;;5.20;99.90;;;;;;5126503;28;20437;-90
2022/01/23 10:25:28;;;;;;;13.38;10.25;;;4.90;99.90;;;;;;5109339;28;20227;-87
2022/01/23 10:28:07;;;;;;;20.52;12.07;;;4.90;99.90;;;;;;5109008;28;20357;-89
2022/01/23 10:30:43;;;;;;;20.88;11.63;;;5.10;99.90;;;;;;5125653;28;20202;-89
2022/01/23 10:33:31;;;;;;;19.85;12.10;;;5.00;99.90;;;;;;5096337;28;20199;-89
2022/01/23 10:36:07;;;;;;;20.58;13.10;;;5.20;99.90;;;;;;5111532;28;20209;-88
2022/01/23 10:38:53;;;;;;;18.65;12.88;;;5.60;99.90;;;;;;5097378;28;20200;-89
2022/01/23 10:50:03;;;;;;;14.65;10.45;;;5.80;99.90;;;;;;5103662;28;20194;-88
2022/01/23 10:52:33;;;;;;;13.77;10.85;;;5.60;99.90;;;;;;5095646;28;20202;-88
2022/01/23 10:55:26;;;;;;;22.25;11.15;;;5.40;99.90;;;;;;5085610;28;20540;-89
2022/01/23 10:57:58;;;;;;;15.82;11.40;;;5.40;99.90;;;;;;5068274;28;20207;-87
2022/01/23 11:00:27;;;;;;;14.38;9.85;;;5.80;99.90;;;;;;5097709;28;20434;-87
2022/01/23 11:02:57;;;;;;;13.75;9.30;;;5.50;99.90;;;;;;5095067;28;20229;-87
2022/01/23 11:05:32;;;;;;;16.38;10.13;;;5.60;99.90;;;;;;5085596;28;20226;-89
2022/01/23 11:08:00;;;;;;;15.25;10.10;;;5.70;99.90;;;;;;5079761;28;20484;-87
2022/01/23 11:10:28;;;;;;;16.70;11.60;;;5.80;99.90;;;;;;5087394;28;20195;-87
2022/01/23 11:18:34;;;;;;;16.70;12.07;;;5.50;99.90;;;;;;5083112;28;20370;-88
2022/01/23 11:21:18;;;;;;;18.50;13.27;;;5.90;99.90;;;;;;5083374;28;20255;-89
2022/01/23 11:24:02;;;;;;;19.38;12.95;;;5.70;99.90;;;;;;5083686;28;20256;-88
2022/01/23 11:26:29;;;;;;;17.85;12.30;;;5.90;99.90;;;;;;5066161;28;20198;-87
2022/01/23 11:29:07;;;;;;;17.83;12.38;;;5.90;99.90;;;;;;5065912;28;20194;-88
2022/01/23 11:31:35;;;;;;;21.52;13.02;;;6.00;99.90;;;;;;5083873;28;20194;-88
2022/01/23 11:34:05;;;;;;;19.77;13.60;;;6.20;99.90;;;;;;5083930;28;20223;-89
2022/01/23 11:36:34;;;;;;;16.83;12.82;;;6.20;99.90;;;;;;5066459;28;20202;-88
2022/01/23 11:39:19;;;;;;;31.10;19.70;;;6.20;99.90;;;;;;5066483;28;20429;-86
2022/01/23 11:56:25;;;;;;;20.92;14.40;;;6.40;99.90;;;;;;5111425;28;20189;-88
2022/01/23 11:58:55;;;;;;;18.92;12.93;;;6.40;99.90;;;;;;5103034;28;20205;-88
2022/01/23 12:01:25;;;;;;;26.20;15.95;;;6.60;99.90;;;;;;5102811;28;20201;-88
2022/01/23 12:04:10;;;;;;;15.73;11.18;;;6.50;99.90;;;;;;5080918;28;20197;-88
2022/01/23 12:06:40;;;;;;;14.88;10.73;;;6.30;99.90;;;;;;5079224;28;20202;-87
2022/01/23 12:09:16;;;;;;;14.77;11.35;;;6.20;99.90;;;;;;5086600;28;20225;-89
2022/01/23 12:12:02;;;;;;;15.43;9.90;;;6.40;99.90;;;;;;5074929;28;20209;-88
2022/01/23 12:17:10;;;;;;;19.40;11.73;;;6.10;99.90;;;;;;5095538;28;20414;-88
2022/01/23 12:19:44;;;;;;;20.13;11.52;;;5.80;99.90;;;;;;5089438;28;20218;-87
2022/01/23 12:22:37;;;;;;;17.48;12.00;;;5.80;99.90;;;;;;5092711;28;20210;-87
2022/01/23 12:25:15;;;;;;;16.85;10.57;;;5.60;99.90;;;;;;5089751;28;20221;-87
2022/01/23 12:27:44;;;;;;;18.73;12.45;;;5.50;99.90;;;;;;5099807;28;20372;-89
2022/01/23 12:30:33;;;;;;;18.80;12.88;;;5.60;99.90;;;;;;5103438;28;20194;-87
2022/01/23 12:33:15;;;;;;;23.98;15.07;;;5.80;99.90;;;;;;5087697;28;20197;-88
2022/01/23 12:35:53;;;;;;;21.02;14.02;;;5.80;99.90;;;;;;5104979;28;20269;-91
2022/01/23 12:38:33;;;;;;;22.50;13.35;;;5.60;99.90;;;;;;5087846;28;20204;-90
2022/01/23 12:41:30;;;;;;;15.45;11.88;;;5.70;99.90;;;;;;5111093;28;20203;-89
2022/01/23 12:44:04;;;;;;;15.07;10.32;;;5.80;99.90;;;;;;5067882;28;20210;-92
2022/01/23 12:46:38;;;;;;;14.13;10.18;;;5.50;99.90;;;;;;5074671;28;20204;-89
2022/01/23 12:49:38;;;;;;;13.75;8.93;;;5.40;99.90;;;;;;5068669;28;20197;-89
2022/01/23 12:52:09;;;;;;;18.05;11.82;;;5.10;99.90;;;;;;5077958;28;20197;-88
2022/01/23 12:54:58;;;;;;;16.73;12.30;;;5.00;99.90;;;;;;5087103;28;20221;-90
2022/01/23 12:57:33;;;;;;;12.02;10.75;;;5.10;99.90;;;;;;5095996;28;20381;-89
2022/01/23 13:00:06;;;;;;;13.57;9.65;;;5.10;99.90;;;;;;5071868;28;20367;-88
2022/01/23 13:02:44;;;;;;;18.58;10.45;;;5.10;99.90;;;;;;5082699;28;20202;-89
2022/01/23 13:05:15;;;;;;;14.95;10.80;;;5.10;99.90;;;;;;5122851;28;20285;-88
2022/01/23 13:08:06;;;;;;;14.23;10.55;;;5.30;99.90;;;;;;5104725;28;20287;-87
2022/01/23 13:13:33;;;;;;;21.80;11.00;;;5.20;99.90;;;;;;5122932;28;20200;-86
2022/01/23 13:27:26;;;;;;;15.32;9.65;;;5.00;99.90;;;;;;5105894;28;20205;-86
2022/01/23 13:30:03;;;;;;;22.13;11.90;;;5.00;99.90;;;;;;5105264;28;20199;-84
2022/01/23 13:32:51;;;;;;;19.60;10.57;;;4.70;99.90;;;;;;5106711;28;20255;-84
2022/01/23 13:35:21;;;;;;;17.02;10.05;;;4.70;99.90;;;;;;5106635;28;20250;-85
2022/01/23 13:37:57;;;;;;;14.98;10.13;;;4.40;99.90;;;;;;5088108;28;20340;-86
2022/01/23 13:40:36;;;;;;;20.75;12.10;;;4.50;99.90;;;;;;5106759;28;20284;-86
2022/01/23 14:02:14;;;;;;;19.35;12.00;;;5.00;99.90;;;;;;5106349;28;20205;-88
2022/01/23 14:04:56;;;;;;;17.58;11.50;;;5.10;99.90;;;;;;5087979;28;20394;-87
2022/01/23 14:07:26;;;;;;;14.85;11.15;;;5.10;99.90;;;;;;5070926;28;20208;-89
2022/01/23 14:10:30;;;;;;;15.70;10.15;;;5.10;99.90;;;;;;5085291;28;20221;-87
2022/01/23 14:13:14;;;;;;;12.40;9.80;;;4.80;99.90;;;;;;5067469;28;20197;-87
2022/01/23 14:15:51;;;;;;;14.52;9.60;;;5.20;99.90;;;;;;5067059;28;20212;-86
2022/01/23 14:18:25;;;;;;;15.63;9.50;;;5.10;99.90;;;;;;5067367;28;20237;-88
2022/01/23 14:21:02;;;;;;;15.20;9.75;;;5.00;99.90;;;;;;5066816;28;20193;-89
2022/01/23 14:23:30;;;;;;;14.25;9.48;;;5.00;99.90;;;;;;5085480;28;20194;-88
2022/01/23 14:26:00;;;;;;;14.02;8.57;;;4.90;99.90;;;;;;5085818;28;20344;-90
2022/01/23 14:28:38;;;;;;;13.93;9.55;;;4.80;99.90;;;;;;5085505;28;20197;-87
2022/01/23 14:31:17;;;;;;;12.55;8.05;;;4.80;99.90;;;;;;5066933;28;20198;-89
2022/01/23 14:33:48;;;;;;;15.13;9.30;;;4.70;99.90;;;;;;5101892;28;20414;-90
2022/01/23 14:36:31;;;;;;;15.45;10.30;;;4.70;99.90;;;;;;5125604;28;20249;-90
2022/01/23 14:39:02;;;;;;;13.80;9.57;;;4.50;99.90;;;;;;5104204;28;20228;-87
2022/01/23 14:41:33;;;;;;;15.50;10.38;;;4.40;99.90;;;;;;5087449;28;20211;-88
2022/01/23 14:44:05;;;;;;;14.15;9.95;;;4.40;99.90;;;;;;5074930;28;20237;-87
2022/01/23 14:46:33;;;;;;;15.98;9.57;;;4.50;99.90;;;;;;5116405;28;20223;-89
2022/01/23 14:49:10;;;;;;;15.43;9.02;;;4.00;99.90;;;;;;5107474;28;20263;-90
2022/01/23 14:51:38;;;;;;;17.00;10.20;;;3.90;99.90;;;;;;5108160;28;20202;-87
2022/01/23 14:54:06;;;;;;;17.52;11.20;;;4.00;99.90;;;;;;5106631;28;20196;-89
2022/01/23 14:56:37;;;;;;;16.27;11.68;;;4.10;99.90;;;;;;5107388;28;20204;-88
2022/01/23 14:59:10;;;;;;;17.08;10.63;;;3.90;99.90;;;;;;5107190;28;20398;-89
2022/01/23 15:01:39;;;;;;;18.88;12.23;;;3.80;99.90;;;;;;5124826;28;20192;-87
2022/01/23 15:04:10;;;;;;;18.35;12.30;;;4.00;99.90;;;;;;5126744;28;20195;-90
2022/01/23 15:06:46;;;;;;;21.67;12.23;;;4.20;99.90;;;;;;5126925;28;20227;-89
2022/01/23 15:09:17;;;;;;;16.92;11.77;;;4.30;99.90;;;;;;5127500;28;20263;-91
2022/01/23 15:11:45;;;;;;;21.50;11.35;;;4.40;99.90;;;;;;5107281;28;20192;-91
2022/01/23 15:14:13;;;;;;;19.35;13.52;;;4.40;99.90;;;;;;5082599;28;20332;-90
2022/01/23 15:16:42;;;;;;;15.40;11.45;;;4.40;99.90;;;;;;5095854;28;20208;-91
2022/01/23 15:19:10;;;;;;;14.68;10.18;;;4.30;99.90;;;;;;5088597;28;20235;-90
2022/01/23 15:21:38;;;;;;;18.17;11.80;;;4.10;99.90;;;;;;5099723;28;20198;-89
2022/01/23 15:24:06;;;;;;;18.65;10.45;;;3.90;99.90;;;;;;5107708;28;20199;-91
2022/01/23 15:26:36;;;;;;;21.70;9.45;;;4.00;99.90;;;;;;5085902;28;20279;-90
2022/01/23 15:29:05;;;;;;;16.15;10.25;;;4.00;99.90;;;;;;5082538;28;20193;-91
2022/01/23 15:31:35;;;;;;;16.85;11.00;;;4.00;99.90;;;;;;5079572;28;20215;-90
2022/01/23 15:34:04;;;;;;;17.40;10.93;;;4.10;99.90;;;;;;5078596;28;20203;-89
2022/01/23 15:36:33;;;;;;;20.30;11.30;;;4.40;99.90;;;;;;5077809;28;20204;-91
2022/01/23 15:39:05;;;;;;;14.23;9.85;;;4.20;99.90;;;;;;5077231;28;20270;-89
2022/01/23 15:41:34;;;;;;;14.45;9.95;;;3.90;99.90;;;;;;5104348;28;20234;-88
2022/01/23 15:44:02;;;;;;;25.48;15.82;;;3.80;99.90;;;;;;5081168;28;20199;-89
2022/01/23 15:46:35;;;;;;;21.50;12.73;;;3.60;99.90;;;;;;5079750;28;20220;-87
2022/01/23 15:49:03;;;;;;;19.70;12.88;;;3.40;99.90;;;;;;5095995;28;20197;-89
2022/01/23 15:51:31;;;;;;;23.27;14.57;;;3.30;99.90;;;;;;5080618;28;20210;-90
2022/01/23 15:53:59;;;;;;;18.58;12.95;;;3.20;99.90;;;;;;5092721;28;20205;-91
2022/01/23 15:56:27;;;;;;;30.15;18.10;;;3.20;99.90;;;;;;5113465;28;20195;-91
2022/01/23 15:58:55;;;;;;;24.63;14.00;;;3.50;99.90;;;;;;5087715;28;20271;-91
2022/01/23 16:01:23;;;;;;;14.10;9.60;;;3.40;99.90;;;;;;5087845;28;20204;-89
2022/01/23 16:03:51;;;;;;;20.20;12.07;;;3.50;99.90;;;;;;5087371;28;20217;-90
2022/01/23 16:06:20;;;;;;;19.27;14.65;;;3.80;99.90;;;;;;5096040;28;20282;-90
2022/01/23 16:08:50;;;;;;;18.20;11.45;;;3.70;99.90;;;;;;5087748;28;20233;-89
2022/01/23 16:11:18;;;;;;;18.90;12.05;;;3.50;99.90;;;;;;5096825;28;20195;-92
2022/01/23 16:13:45;;;;;;;19.48;12.98;;;3.60;99.90;;;;;;5081718;28;20283;-90
2022/01/23 16:16:15;;;;;;;16.27;10.63;;;3.90;99.90;;;;;;5071300;28;20235;-90
2022/01/23 16:18:43;;;;;;;20.13;12.23;;;4.00;99.90;;;;;;5107709;28;20435;-90
2022/01/23 16:21:12;;;;;;;24.45;16.40;;;3.90;99.90;;;;;;5099387;28;20199;-90
2022/01/23 16:23:41;;;;;;;34.72;26.00;;;4.00;99.90;;;;;;5079186;28;20222;-89
2022/01/23 16:26:19;;;;;;;22.67;14.43;;;4.00;99.90;;;;;;5088419;28;20213;-90